sensor_id;sensor_type;location;lat;lon;timestamp;temperature;humidity
23063;DHT22;11699;43.704;10.430;2023-05-16T00:01:03;15.50;99.90
23063;DHT22;11699;43.704;10.430;2023-05-16T00:03:32;15.50;99.90
23063;DHT22;11699;43.704;10.430;2023-05-16T00:05:59;15.60;99.90
23063;DHT22;11699;43.704;10.430;2023-05-16T00:08:27;15.70;99.90
23063;DHT22;11699;43.704;10.430;2023-05-16T00:10:54;15.70;99.90
23063;DHT22;11699;43.704;10.430;2023-05-16T00:13:21;15.70;99.90
23063;DHT22;11699;43.704;10.430;2023-05-16T00:15:51;15.70;99.90
23063;DHT22;11699;43.704;10.430;2023-05-16T00:18:18;15.70;99.90
23063;DHT22;11699;43.704;10.430;2023-05-16T00:20:48;15.70;99.90
23063;DHT22;11699;43.704;10.430;2023-05-16T00:23:16;15.70;99.90
23063;DHT22;11699;43.704;10.430;2023-05-16T00:25:44;15.80;99.90
23063;DHT22;11699;43.704;10.430;2023-05-16T00:28:12;15.80;99.90
23063;DHT22;11699;43.704;10.430;2023-05-16T00:30:39;15.80;99.90
23063;DHT22;11699;43.704;10.430;2023-05-16T00:33:06;15.80;99.90
23063;DHT22;11699;43.704;10.430;2023-05-16T00:35:33;15.90;99.90
23063;DHT22;11699;43.704;10.430;2023-05-16T00:38:02;15.90;99.90
23063;DHT22;11699;43.704;10.430;2023-05-16T00:40:29;15.70;99.90
23063;DHT22;11699;43.704;10.430;2023-05-16T00:42:56;15.70;99.90
23063;DHT22;11699;43.704;10.430;2023-05-16T00:45:24;15.60;99.90
23063;DHT22;11699;43.704;10.430;2023-05-16T00:47:51;15.60;99.90
23063;DHT22;11699;43.704;10.430;2023-05-16T00:50:19;15.70;99.90
23063;DHT22;11699;43.704;10.430;2023-05-16T00:52:46;15.60;99.90
23063;DHT22;11699;43.704;10.430;2023-05-16T00:55:15;15.70;99.90
23063;DHT22;11699;43.704;10.430;2023-05-16T00:57:42;15.70;99.90
23063;DHT22;11699;43.704;10.430;2023-05-16T01:00:10;15.60;99.90
23063;DHT22;11699;43.704;10.430;2023-05-16T01:02:40;15.60;99.90
23063;DHT22;11699;43.704;10.430;2023-05-16T01:05:08;15.60;99.90
23063;DHT22;11699;43.704;10.430;2023-05-16T01:07:35;15.60;99.90
23063;DHT22;11699;43.704;10.430;2023-05-16T01:10:05;15.60;99.90
23063;DHT22;11699;43.704;10.430;2023-05-16T01:12:39;15.70;99.90
23063;DHT22;11699;43.704;10.430;2023-05-16T01:15:09;15.70;99.90
23063;DHT22;11699;43.704;10.430;2023-05-16T01:17:48;15.60;99.90
23063;DHT22;11699;43.704;10.430;2023-05-16T01:20:25;15.70;99.90
23063;DHT22;11699;43.704;10.430;2023-05-16T01:23:04;15.70;99.90
23063;DHT22;11699;43.704;10.430;2023-05-16T01:25:44;15.80;99.90
23063;DHT22;11699;43.704;10.430;2023-05-16T01:28:16;15.80;99.90
23063;DHT22;11699;43.704;10.430;2023-05-16T01:30:43;15.90;99.90
23063;DHT22;11699;43.704;10.430;2023-05-16T01:33:11;15.90;99.90
23063;DHT22;11699;43.704;10.430;2023-05-16T01:35:44;15.90;99.90
23063;DHT22;11699;43.704;10.430;2023-05-16T01:38:17;16.00;99.90
23063;DHT22;11699;43.704;10.430;2023-05-16T01:40:50;16.00;99.90
23063;DHT22;11699;43.704;10.430;2023-05-16T01:43:28;15.90;99.90
23063;DHT22;11699;43.704;10.430;2023-05-16T01:46:01;16.00;99.90
23063;DHT22;11699;43.704;10.430;2023-05-16T01:48:34;16.00;99.90
23063;DHT22;11699;43.704;10.430;2023-05-16T01:51:03;16.00;99.90
23063;DHT22;11699;43.704;10.430;2023-05-16T01:53:36;16.00;99.90
23063;DHT22;11699;43.704;10.430;2023-05-16T01:56:08;16.00;99.90
23063;DHT22;11699;43.704;10.430;2023-05-16T01:58:38;16.10;99.90
23063;DHT22;11699;43.704;10.430;2023-05-16T02:01:05;16.10;99.90
23063;DHT22;11699;43.704;10.430;2023-05-16T02:03:33;16.10;99.90
23063;DHT22;11699;43.704;10.430;2023-05-16T02:06:01;16.10;99.90
23063;DHT22;11699;43.704;10.430;2023-05-16T02:08:28;16.00;99.90
23063;DHT22;11699;43.704;10.430;2023-05-16T02:10:55;15.90;99.90
23063;DHT22;11699;43.704;10.430;2023-05-16T02:13:23;15.80;99.90
23063;DHT22;11699;43.704;10.430;2023-05-16T02:15:51;15.80;99.90
23063;DHT22;11699;43.704;10.430;2023-05-16T02:18:19;15.90;99.90
23063;DHT22;11699;43.704;10.430;2023-05-16T02:20:48;15.80;99.90
23063;DHT22;11699;43.704;10.430;2023-05-16T02:23:15;15.90;99.90
23063;DHT22;11699;43.704;10.430;2023-05-16T02:25:43;15.80;99.90
23063;DHT22;11699;43.704;10.430;2023-05-16T02:28:10;15.80;99.90
23063;DHT22;11699;43.704;10.430;2023-05-16T02:30:38;15.80;99.90
23063;DHT22;11699;43.704;10.430;2023-05-16T02:33:06;15.90;99.90
23063;DHT22;11699;43.704;10.430;2023-05-16T02:35:33;15.90;99.90
23063;DHT22;11699;43.704;10.430;2023-05-16T02:38:00;16.00;99.90
23063;DHT22;11699;43.704;10.430;2023-05-16T02:40:28;16.10;99.90
23063;DHT22;11699;43.704;10.430;2023-05-16T02:42:55;15.90;99.90
23063;DHT22;11699;43.704;10.430;2023-05-16T02:45:23;15.90;99.90
23063;DHT22;11699;43.704;10.430;2023-05-16T02:47:50;16.00;99.90
23063;DHT22;11699;43.704;10.430;2023-05-16T02:50:19;15.90;99.90
23063;DHT22;11699;43.704;10.430;2023-05-16T02:52:47;16.00;99.90
23063;DHT22;11699;43.704;10.430;2023-05-16T02:55:14;16.00;99.90
23063;DHT22;11699;43.704;10.430;2023-05-16T02:57:41;16.00;99.90
23063;DHT22;11699;43.704;10.430;2023-05-16T03:00:09;16.00;99.90
23063;DHT22;11699;43.704;10.430;2023-05-16T03:02:37;16.00;99.90
23063;DHT22;11699;43.704;10.430;2023-05-16T03:05:05;16.10;99.90
23063;DHT22;11699;43.704;10.430;2023-05-16T03:07:34;16.10;99.90
23063;DHT22;11699;43.704;10.430;2023-05-16T03:10:01;16.10;99.90
23063;DHT22;11699;43.704;10.430;2023-05-16T03:12:29;16.00;99.90
23063;DHT22;11699;43.704;10.430;2023-05-16T03:14:56;16.00;99.90
23063;DHT22;11699;43.704;10.430;2023-05-16T03:17:23;15.90;99.90
23063;DHT22;11699;43.704;10.430;2023-05-16T03:19:50;16.00;99.90
23063;DHT22;11699;43.704;10.430;2023-05-16T03:22:17;16.00;99.90
23063;DHT22;11699;43.704;10.430;2023-05-16T03:24:46;16.00;99.90
23063;DHT22;11699;43.704;10.430;2023-05-16T03:27:13;16.00;99.90
23063;DHT22;11699;43.704;10.430;2023-05-16T03:29:40;15.90;99.90
23063;DHT22;11699;43.704;10.430;2023-05-16T03:32:10;16.00;99.90
23063;DHT22;11699;43.704;10.430;2023-05-16T03:34:38;16.00;99.90
23063;DHT22;11699;43.704;10.430;2023-05-16T03:37:05;16.00;99.90
23063;DHT22;11699;43.704;10.430;2023-05-16T03:39:33;16.00;99.90
23063;DHT22;11699;43.704;10.430;2023-05-16T03:42:03;16.00;99.90
23063;DHT22;11699;43.704;10.430;2023-05-16T03:44:31;16.10;99.90
23063;DHT22;11699;43.704;10.430;2023-05-16T03:46:58;16.10;99.90
23063;DHT22;11699;43.704;10.430;2023-05-16T03:49:26;16.10;99.90
23063;DHT22;11699;43.704;10.430;2023-05-16T03:51:53;16.10;99.90
23063;DHT22;11699;43.704;10.430;2023-05-16T03:54:21;16.20;99.90
23063;DHT22;11699;43.704;10.430;2023-05-16T03:56:48;16.20;99.90
23063;DHT22;11699;43.704;10.430;2023-05-16T03:59:17;16.10;99.90
23063;DHT22;11699;43.704;10.430;2023-05-16T04:01:44;16.10;99.90
23063;DHT22;11699;43.704;10.430;2023-05-16T04:04:11;16.20;99.90
23063;DHT22;11699;43.704;10.430;2023-05-16T04:06:39;16.10;99.90
23063;DHT22;11699;43.704;10.430;2023-05-16T04:09:06;16.00;99.90
23063;DHT22;11699;43.704;10.430;2023-05-16T04:11:34;16.00;99.90
23063;DHT22;11699;43.704;10.430;2023-05-16T04:14:03;15.90;99.90
23063;DHT22;11699;43.704;10.430;2023-05-16T04:16:32;15.90;99.90
23063;DHT22;11699;43.704;10.430;2023-05-16T04:18:59;15.70;99.90
23063;DHT22;11699;43.704;10.430;2023-05-16T04:21:27;15.70;99.90
23063;DHT22;11699;43.704;10.430;2023-05-16T04:23:54;15.50;99.90
23063;DHT22;11699;43.704;10.430;2023-05-16T04:26:22;15.50;99.90
23063;DHT22;11699;43.704;10.430;2023-05-16T04:28:50;15.40;99.90
23063;DHT22;11699;43.704;10.430;2023-05-16T04:31:18;15.40;99.90
23063;DHT22;11699;43.704;10.430;2023-05-16T04:33:46;15.40;99.90
23063;DHT22;11699;43.704;10.430;2023-05-16T04:36:13;15.40;99.90
23063;DHT22;11699;43.704;10.430;2023-05-16T04:38:41;15.40;99.90
23063;DHT22;11699;43.704;10.430;2023-05-16T04:41:08;15.30;99.90
23063;DHT22;11699;43.704;10.430;2023-05-16T04:43:35;15.30;99.90
23063;DHT22;11699;43.704;10.430;2023-05-16T04:46:03;15.20;99.90
23063;DHT22;11699;43.704;10.430;2023-05-16T04:48:31;15.10;99.90
23063;DHT22;11699;43.704;10.430;2023-05-16T04:51:00;15.10;99.90
23063;DHT22;11699;43.704;10.430;2023-05-16T04:53:27;15.10;99.90
23063;DHT22;11699;43.704;10.430;2023-05-16T04:55:54;15.10;99.90
23063;DHT22;11699;43.704;10.430;2023-05-16T04:58:22;15.30;99.90
23063;DHT22;11699;43.704;10.430;2023-05-16T05:00:50;15.30;99.90
23063;DHT22;11699;43.704;10.430;2023-05-16T05:03:17;15.20;99.90
23063;DHT22;11699;43.704;10.430;2023-05-16T05:05:44;15.40;99.90
23063;DHT22;11699;43.704;10.430;2023-05-16T05:08:13;15.40;99.90
23063;DHT22;11699;43.704;10.430;2023-05-16T05:10:41;15.50;99.90
23063;DHT22;11699;43.704;10.430;2023-05-16T05:13:10;15.40;99.90
23063;DHT22;11699;43.704;10.430;2023-05-16T05:15:37;15.40;99.90
23063;DHT22;11699;43.704;10.430;2023-05-16T05:18:04;15.40;99.90
23063;DHT22;11699;43.704;10.430;2023-05-16T05:20:31;15.40;99.90
23063;DHT22;11699;43.704;10.430;2023-05-16T05:22:59;15.40;99.90
23063;DHT22;11699;43.704;10.430;2023-05-16T05:25:27;15.50;99.90
23063;DHT22;11699;43.704;10.430;2023-05-16T05:27:55;15.60;99.90
23063;DHT22;11699;43.704;10.430;2023-05-16T05:30:22;15.60;99.90
23063;DHT22;11699;43.704;10.430;2023-05-16T05:32:49;15.60;99.90
23063;DHT22;11699;43.704;10.430;2023-05-16T05:35:16;15.60;99.90
23063;DHT22;11699;43.704;10.430;2023-05-16T05:37:43;15.70;99.90
23063;DHT22;11699;43.704;10.430;2023-05-16T05:40:11;15.70;99.90
23063;DHT22;11699;43.704;10.430;2023-05-16T05:42:39;15.70;99.90
23063;DHT22;11699;43.704;10.430;2023-05-16T05:45:08;15.70;99.90
23063;DHT22;11699;43.704;10.430;2023-05-16T05:47:35;15.60;99.90
23063;DHT22;11699;43.704;10.430;2023-05-16T05:50:03;15.60;99.90
23063;DHT22;11699;43.704;10.430;2023-05-16T05:52:30;15.50;99.90
23063;DHT22;11699;43.704;10.430;2023-05-16T05:54:57;15.40;99.90
23063;DHT22;11699;43.704;10.430;2023-05-16T05:57:25;15.50;99.90
23063;DHT22;11699;43.704;10.430;2023-05-16T05:59:53;15.50;99.90
23063;DHT22;11699;43.704;10.430;2023-05-16T06:02:20;15.60;99.90
23063;DHT22;11699;43.704;10.430;2023-05-16T06:04:47;15.60;99.90
23063;DHT22;11699;43.704;10.430;2023-05-16T06:07:15;15.40;99.90
23063;DHT22;11699;43.704;10.430;2023-05-16T06:09:43;15.50;99.90
23063;DHT22;11699;43.704;10.430;2023-05-16T06:12:10;15.60;99.90
23063;DHT22;11699;43.704;10.430;2023-05-16T06:14:38;15.50;99.90
23063;DHT22;11699;43.704;10.430;2023-05-16T06:17:06;15.60;99.90
23063;DHT22;11699;43.704;10.430;2023-05-16T06:19:33;15.60;99.90
23063;DHT22;11699;43.704;10.430;2023-05-16T06:22:01;15.70;99.90
23063;DHT22;11699;43.704;10.430;2023-05-16T06:24:28;15.70;99.90
23063;DHT22;11699;43.704;10.430;2023-05-16T06:26:55;15.90;99.90
23063;DHT22;11699;43.704;10.430;2023-05-16T06:29:23;16.10;99.90
23063;DHT22;11699;43.704;10.430;2023-05-16T06:31:50;16.40;99.90
23063;DHT22;11699;43.704;10.430;2023-05-16T06:34:18;16.40;99.90
23063;DHT22;11699;43.704;10.430;2023-05-16T06:36:52;16.40;99.90
23063;DHT22;11699;43.704;10.430;2023-05-16T06:39:19;16.40;99.90
23063;DHT22;11699;43.704;10.430;2023-05-16T06:41:46;16.60;99.90
23063;DHT22;11699;43.704;10.430;2023-05-16T06:44:14;16.80;99.90
23063;DHT22;11699;43.704;10.430;2023-05-16T06:46:41;17.00;99.90
23063;DHT22;11699;43.704;10.430;2023-05-16T06:49:09;17.10;99.90
23063;DHT22;11699;43.704;10.430;2023-05-16T06:51:37;17.30;99.90
23063;DHT22;11699;43.704;10.430;2023-05-16T06:54:05;17.30;99.90
23063;DHT22;11699;43.704;10.430;2023-05-16T06:56:32;17.40;99.90
23063;DHT22;11699;43.704;10.430;2023-05-16T06:58:59;17.40;99.90
23063;DHT22;11699;43.704;10.430;2023-05-16T07:01:27;17.60;99.90
23063;DHT22;11699;43.704;10.430;2023-05-16T07:03:54;17.70;99.90
23063;DHT22;11699;43.704;10.430;2023-05-16T07:06:21;17.70;99.90
23063;DHT22;11699;43.704;10.430;2023-05-16T07:08:50;17.60;99.90
23063;DHT22;11699;43.704;10.430;2023-05-16T07:11:18;17.70;99.90
23063;DHT22;11699;43.704;10.430;2023-05-16T07:13:46;17.80;99.90
23063;DHT22;11699;43.704;10.430;2023-05-16T07:16:13;17.90;99.90
23063;DHT22;11699;43.704;10.430;2023-05-16T07:18:40;17.80;99.90
23063;DHT22;11699;43.704;10.430;2023-05-16T07:21:08;17.70;99.90
23063;DHT22;11699;43.704;10.430;2023-05-16T07:23:36;17.60;99.90
23063;DHT22;11699;43.704;10.430;2023-05-16T07:26:05;17.80;99.90
23063;DHT22;11699;43.704;10.430;2023-05-16T07:28:32;18.90;99.90
23063;DHT22;11699;43.704;10.430;2023-05-16T07:30:59;19.10;99.90
23063;DHT22;11699;43.704;10.430;2023-05-16T07:33:26;18.90;99.90
23063;DHT22;11699;43.704;10.430;2023-05-16T07:35:54;18.90;99.90
23063;DHT22;11699;43.704;10.430;2023-05-16T07:38:21;18.60;99.90
23063;DHT22;11699;43.704;10.430;2023-05-16T07:40:48;18.30;99.90
23063;DHT22;11699;43.704;10.430;2023-05-16T07:43:17;18.20;99.90
23063;DHT22;11699;43.704;10.430;2023-05-16T07:45:44;18.20;99.90
23063;DHT22;11699;43.704;10.430;2023-05-16T07:48:11;18.20;99.90
23063;DHT22;11699;43.704;10.430;2023-05-16T07:50:39;18.20;99.90
23063;DHT22;11699;43.704;10.430;2023-05-16T07:53:06;18.10;99.90
23063;DHT22;11699;43.704;10.430;2023-05-16T07:55:33;18.00;99.90
23063;DHT22;11699;43.704;10.430;2023-05-16T07:58:01;18.00;99.90
23063;DHT22;11699;43.704;10.430;2023-05-16T08:00:30;18.00;99.90
23063;DHT22;11699;43.704;10.430;2023-05-16T08:02:58;17.90;99.90
23063;DHT22;11699;43.704;10.430;2023-05-16T08:05:25;17.80;99.90
23063;DHT22;11699;43.704;10.430;2023-05-16T08:07:52;17.50;99.90
23063;DHT22;11699;43.704;10.430;2023-05-16T08:10:20;17.40;99.90
23063;DHT22;11699;43.704;10.430;2023-05-16T08:12:48;17.50;99.90
23063;DHT22;11699;43.704;10.430;2023-05-16T08:15:15;17.60;99.90
23063;DHT22;11699;43.704;10.430;2023-05-16T08:17:44;17.60;99.90
23063;DHT22;11699;43.704;10.430;2023-05-16T08:20:11;17.60;99.90
23063;DHT22;11699;43.704;10.430;2023-05-16T08:22:39;17.80;99.90
23063;DHT22;11699;43.704;10.430;2023-05-16T08:25:07;17.80;99.90
23063;DHT22;11699;43.704;10.430;2023-05-16T08:27:34;18.00;99.90
23063;DHT22;11699;43.704;10.430;2023-05-16T08:30:01;17.90;99.90
23063;DHT22;11699;43.704;10.430;2023-05-16T08:32:29;17.90;99.90
23063;DHT22;11699;43.704;10.430;2023-05-16T08:34:59;18.00;99.90
23063;DHT22;11699;43.704;10.430;2023-05-16T08:37:27;18.00;99.90
23063;DHT22;11699;43.704;10.430;2023-05-16T08:39:54;18.00;99.90
23063;DHT22;11699;43.704;10.430;2023-05-16T08:42:22;17.90;99.90
23063;DHT22;11699;43.704;10.430;2023-05-16T08:44:49;17.80;99.90
23063;DHT22;11699;43.704;10.430;2023-05-16T08:47:17;17.80;99.90
23063;DHT22;11699;43.704;10.430;2023-05-16T08:49:47;17.70;99.90
23063;DHT22;11699;43.704;10.430;2023-05-16T08:52:17;17.80;99.90
23063;DHT22;11699;43.704;10.430;2023-05-16T08:54:45;18.00;99.90
23063;DHT22;11699;43.704;10.430;2023-05-16T08:57:14;17.90;99.90
23063;DHT22;11699;43.704;10.430;2023-05-16T08:59:43;17.90;99.90
23063;DHT22;11699;43.704;10.430;2023-05-16T09:02:11;17.90;99.90
23063;DHT22;11699;43.704;10.430;2023-05-16T09:04:39;17.80;99.90
23063;DHT22;11699;43.704;10.430;2023-05-16T09:07:07;17.80;99.90
23063;DHT22;11699;43.704;10.430;2023-05-16T09:09:36;18.00;99.90
23063;DHT22;11699;43.704;10.430;2023-05-16T09:12:04;18.20;99.90
23063;DHT22;11699;43.704;10.430;2023-05-16T09:14:31;18.10;99.90
23063;DHT22;11699;43.704;10.430;2023-05-16T09:17:05;18.10;99.90
23063;DHT22;11699;43.704;10.430;2023-05-16T09:19:37;18.00;99.90
23063;DHT22;11699;43.704;10.430;2023-05-16T09:22:06;18.10;99.90
23063;DHT22;11699;43.704;10.430;2023-05-16T09:24:38;18.40;99.90
23063;DHT22;11699;43.704;10.430;2023-05-16T09:27:10;18.70;99.90
23063;DHT22;11699;43.704;10.430;2023-05-16T09:29:39;18.90;99.90
23063;DHT22;11699;43.704;10.430;2023-05-16T09:32:12;18.90;99.90
23063;DHT22;11699;43.704;10.430;2023-05-16T09:34:42;19.00;99.90
23063;DHT22;11699;43.704;10.430;2023-05-16T09:37:10;19.00;99.90
23063;DHT22;11699;43.704;10.430;2023-05-16T09:39:45;19.10;99.90
23063;DHT22;11699;43.704;10.430;2023-05-16T09:42:13;19.40;99.90
23063;DHT22;11699;43.704;10.430;2023-05-16T09:44:41;19.40;99.90
23063;DHT22;11699;43.704;10.430;2023-05-16T09:47:13;19.70;99.90
23063;DHT22;11699;43.704;10.430;2023-05-16T09:49:41;19.90;99.90
23063;DHT22;11699;43.704;10.430;2023-05-16T09:52:09;20.40;99.90
23063;DHT22;11699;43.704;10.430;2023-05-16T09:54:38;20.60;99.90
23063;DHT22;11699;43.704;10.430;2023-05-16T09:57:06;20.70;99.90
23063;DHT22;11699;43.704;10.430;2023-05-16T09:59:35;21.00;99.90
23063;DHT22;11699;43.704;10.430;2023-05-16T10:02:04;21.00;99.90
23063;DHT22;11699;43.704;10.430;2023-05-16T10:04:33;20.90;99.90
23063;DHT22;11699;43.704;10.430;2023-05-16T10:07:02;20.90;99.90
23063;DHT22;11699;43.704;10.430;2023-05-16T10:09:31;20.80;99.90
23063;DHT22;11699;43.704;10.430;2023-05-16T10:12:02;20.70;99.90
23063;DHT22;11699;43.704;10.430;2023-05-16T10:14:33;20.70;99.90
23063;DHT22;11699;43.704;10.430;2023-05-16T10:17:02;20.60;99.90
23063;DHT22;11699;43.704;10.430;2023-05-16T10:19:32;20.60;99.90
23063;DHT22;11699;43.704;10.430;2023-05-16T10:22:04;20.70;99.90
23063;DHT22;11699;43.704;10.430;2023-05-16T10:24:42;20.60;99.90
23063;DHT22;11699;43.704;10.430;2023-05-16T10:27:12;20.80;99.90
23063;DHT22;11699;43.704;10.430;2023-05-16T10:29:39;20.90;99.90
23063;DHT22;11699;43.704;10.430;2023-05-16T10:32:07;20.90;99.90
23063;DHT22;11699;43.704;10.430;2023-05-16T10:34:37;21.10;99.90
23063;DHT22;11699;43.704;10.430;2023-05-16T10:37:05;21.50;99.90
23063;DHT22;11699;43.704;10.430;2023-05-16T10:39:34;21.60;99.90
23063;DHT22;11699;43.704;10.430;2023-05-16T10:42:02;22.30;99.90
23063;DHT22;11699;43.704;10.430;2023-05-16T10:44:33;22.80;99.90
23063;DHT22;11699;43.704;10.430;2023-05-16T10:47:00;23.60;99.90
23063;DHT22;11699;43.704;10.430;2023-05-16T10:49:30;24.10;99.90
23063;DHT22;11699;43.704;10.430;2023-05-16T10:52:05;24.00;99.90
23063;DHT22;11699;43.704;10.430;2023-05-16T10:54:34;24.30;99.90
23063;DHT22;11699;43.704;10.430;2023-05-16T10:57:07;24.60;99.90
23063;DHT22;11699;43.704;10.430;2023-05-16T10:59:44;25.40;99.90
23063;DHT22;11699;43.704;10.430;2023-05-16T11:02:24;25.20;99.90
23063;DHT22;11699;43.704;10.430;2023-05-16T11:04:52;25.30;99.90
23063;DHT22;11699;43.704;10.430;2023-05-16T11:07:22;26.00;99.90
23063;DHT22;11699;43.704;10.430;2023-05-16T11:10:08;25.90;99.90
23063;DHT22;11699;43.704;10.430;2023-05-16T11:12:41;24.80;99.90
23063;DHT22;11699;43.704;10.430;2023-05-16T11:15:24;24.30;99.90
23063;DHT22;11699;43.704;10.430;2023-05-16T11:18:04;24.30;99.90
23063;DHT22;11699;43.704;10.430;2023-05-16T11:20:33;23.90;99.90
23063;DHT22;11699;43.704;10.430;2023-05-16T11:23:22;24.00;99.90
23063;DHT22;11699;43.704;10.430;2023-05-16T11:25:53;23.90;99.90
23063;DHT22;11699;43.704;10.430;2023-05-16T11:28:21;24.40;99.90
23063;DHT22;11699;43.704;10.430;2023-05-16T11:30:52;24.30;99.90
23063;DHT22;11699;43.704;10.430;2023-05-16T11:33:23;23.80;99.90
23063;DHT22;11699;43.704;10.430;2023-05-16T11:36:00;24.30;99.90
23063;DHT22;11699;43.704;10.430;2023-05-16T11:38:29;25.20;99.90
23063;DHT22;11699;43.704;10.430;2023-05-16T11:41:02;26.00;99.90
23063;DHT22;11699;43.704;10.430;2023-05-16T11:43:36;26.70;99.90
23063;DHT22;11699;43.704;10.430;2023-05-16T11:46:05;26.60;99.90
23063;DHT22;11699;43.704;10.430;2023-05-16T11:48:33;26.40;99.90
23063;DHT22;11699;43.704;10.430;2023-05-16T11:51:00;26.60;99.90
23063;DHT22;11699;43.704;10.430;2023-05-16T11:53:28;26.10;99.90
23063;DHT22;11699;43.704;10.430;2023-05-16T11:55:55;25.70;99.90
23063;DHT22;11699;43.704;10.430;2023-05-16T11:58:26;25.60;99.90
23063;DHT22;11699;43.704;10.430;2023-05-16T12:00:53;25.90;99.90
23063;DHT22;11699;43.704;10.430;2023-05-16T12:03:22;25.40;99.90
23063;DHT22;11699;43.704;10.430;2023-05-16T12:05:50;24.80;99.90
23063;DHT22;11699;43.704;10.430;2023-05-16T12:08:19;24.60;99.90
23063;DHT22;11699;43.704;10.430;2023-05-16T12:10:48;24.60;99.90
23063;DHT22;11699;43.704;10.430;2023-05-16T12:13:17;25.30;99.90
23063;DHT22;11699;43.704;10.430;2023-05-16T12:15:45;25.30;99.90
23063;DHT22;11699;43.704;10.430;2023-05-16T12:18:12;25.40;99.90
23063;DHT22;11699;43.704;10.430;2023-05-16T12:20:42;24.80;99.90
23063;DHT22;11699;43.704;10.430;2023-05-16T12:23:10;24.60;99.90
23063;DHT22;11699;43.704;10.430;2023-05-16T12:25:38;24.70;99.90
23063;DHT22;11699;43.704;10.430;2023-05-16T12:28:11;24.50;99.90
23063;DHT22;11699;43.704;10.430;2023-05-16T12:30:40;24.10;99.90
23063;DHT22;11699;43.704;10.430;2023-05-16T12:33:11;24.00;99.90
23063;DHT22;11699;43.704;10.430;2023-05-16T12:35:39;24.00;99.90
23063;DHT22;11699;43.704;10.430;2023-05-16T12:38:09;24.20;99.90
23063;DHT22;11699;43.704;10.430;2023-05-16T12:40:37;23.80;99.90
23063;DHT22;11699;43.704;10.430;2023-05-16T12:43:12;23.10;99.90
23063;DHT22;11699;43.704;10.430;2023-05-16T12:45:40;22.40;99.90
23063;DHT22;11699;43.704;10.430;2023-05-16T12:48:11;22.10;99.90
23063;DHT22;11699;43.704;10.430;2023-05-16T12:50:39;21.60;99.90
23063;DHT22;11699;43.704;10.430;2023-05-16T12:53:12;21.50;99.90
23063;DHT22;11699;43.704;10.430;2023-05-16T12:55:40;21.20;99.90
23063;DHT22;11699;43.704;10.430;2023-05-16T12:58:07;20.90;99.90
23063;DHT22;11699;43.704;10.430;2023-05-16T13:00:35;20.70;99.90
23063;DHT22;11699;43.704;10.430;2023-05-16T13:03:03;20.70;99.90
23063;DHT22;11699;43.704;10.430;2023-05-16T13:05:30;20.40;99.90
23063;DHT22;11699;43.704;10.430;2023-05-16T13:07:57;20.30;99.90
23063;DHT22;11699;43.704;10.430;2023-05-16T13:10:26;20.20;99.90
23063;DHT22;11699;43.704;10.430;2023-05-16T13:12:53;20.00;99.90
23063;DHT22;11699;43.704;10.430;2023-05-16T13:15:23;19.80;99.90
23063;DHT22;11699;43.704;10.430;2023-05-16T13:17:51;19.70;99.90
23063;DHT22;11699;43.704;10.430;2023-05-16T13:20:18;19.60;99.90
23063;DHT22;11699;43.704;10.430;2023-05-16T13:22:46;19.60;99.90
23063;DHT22;11699;43.704;10.430;2023-05-16T13:25:13;19.50;99.90
23063;DHT22;11699;43.704;10.430;2023-05-16T13:27:42;19.20;99.90
23063;DHT22;11699;43.704;10.430;2023-05-16T13:30:10;19.10;99.90
23063;DHT22;11699;43.704;10.430;2023-05-16T13:32:37;19.10;99.90
23063;DHT22;11699;43.704;10.430;2023-05-16T13:35:05;19.10;99.90
23063;DHT22;11699;43.704;10.430;2023-05-16T13:37:33;19.30;99.90
23063;DHT22;11699;43.704;10.430;2023-05-16T13:40:00;19.20;99.90
23063;DHT22;11699;43.704;10.430;2023-05-16T13:42:29;19.10;99.90
23063;DHT22;11699;43.704;10.430;2023-05-16T13:44:58;18.80;99.90
23063;DHT22;11699;43.704;10.430;2023-05-16T13:47:25;18.80;99.90
23063;DHT22;11699;43.704;10.430;2023-05-16T13:49:52;18.50;99.90
23063;DHT22;11699;43.704;10.430;2023-05-16T13:52:20;18.50;99.90
23063;DHT22;11699;43.704;10.430;2023-05-16T13:54:47;18.50;99.90
23063;DHT22;11699;43.704;10.430;2023-05-16T13:57:14;18.20;99.90
23063;DHT22;11699;43.704;10.430;2023-05-16T13:59:42;18.20;99.90
23063;DHT22;11699;43.704;10.430;2023-05-16T14:02:11;18.20;99.90
23063;DHT22;11699;43.704;10.430;2023-05-16T14:04:38;18.30;99.90
23063;DHT22;11699;43.704;10.430;2023-05-16T14:07:05;18.40;99.90
23063;DHT22;11699;43.704;10.430;2023-05-16T14:09:33;18.50;99.90
23063;DHT22;11699;43.704;10.430;2023-05-16T14:12:04;18.50;99.90
23063;DHT22;11699;43.704;10.430;2023-05-16T14:14:32;18.50;99.90
23063;DHT22;11699;43.704;10.430;2023-05-16T14:16:59;18.50;99.90
23063;DHT22;11699;43.704;10.430;2023-05-16T14:19:28;18.60;99.90
23063;DHT22;11699;43.704;10.430;2023-05-16T14:21:55;18.60;99.90
23063;DHT22;11699;43.704;10.430;2023-05-16T14:24:22;18.60;99.90
23063;DHT22;11699;43.704;10.430;2023-05-16T14:26:50;18.60;99.90
23063;DHT22;11699;43.704;10.430;2023-05-16T14:29:20;18.60;99.90
23063;DHT22;11699;43.704;10.430;2023-05-16T14:31:47;18.70;99.90
23063;DHT22;11699;43.704;10.430;2023-05-16T14:34:14;18.60;99.90
23063;DHT22;11699;43.704;10.430;2023-05-16T14:36:43;18.60;99.90
23063;DHT22;11699;43.704;10.430;2023-05-16T14:39:10;18.50;99.90
23063;DHT22;11699;43.704;10.430;2023-05-16T14:41:37;18.40;99.90
23063;DHT22;11699;43.704;10.430;2023-05-16T14:44:05;18.40;99.90
23063;DHT22;11699;43.704;10.430;2023-05-16T14:46:32;18.30;99.90
23063;DHT22;11699;43.704;10.430;2023-05-16T14:48:59;18.10;99.90
23063;DHT22;11699;43.704;10.430;2023-05-16T14:51:27;18.10;99.90
23063;DHT22;11699;43.704;10.430;2023-05-16T14:53:55;18.10;99.90
23063;DHT22;11699;43.704;10.430;2023-05-16T14:56:23;18.10;99.90
23063;DHT22;11699;43.704;10.430;2023-05-16T14:58:51;17.90;99.90
23063;DHT22;11699;43.704;10.430;2023-05-16T15:01:19;18.00;99.90
23063;DHT22;11699;43.704;10.430;2023-05-16T15:03:46;18.00;99.90
23063;DHT22;11699;43.704;10.430;2023-05-16T15:06:13;18.00;99.90
23063;DHT22;11699;43.704;10.430;2023-05-16T15:08:41;18.20;99.90
23063;DHT22;11699;43.704;10.430;2023-05-16T15:11:09;18.20;99.90
23063;DHT22;11699;43.704;10.430;2023-05-16T15:13:37;18.20;99.90
23063;DHT22;11699;43.704;10.430;2023-05-16T15:16:05;18.30;99.90
23063;DHT22;11699;43.704;10.430;2023-05-16T15:18:32;18.20;99.90
23063;DHT22;11699;43.704;10.430;2023-05-16T15:20:59;18.10;99.90
23063;DHT22;11699;43.704;10.430;2023-05-16T15:23:27;18.00;99.90